Time;durP1;ratioP1;P1;durP2;ratioP2;P2;SDS_P1;SDS_P2;PMS_P1;PMS_P2;Temp;Humidity;BMP_temperature;BMP_pressure;BME280_temperature;BME280_humidity;BME280_pressure;Samples;Min_cycle;Max_cycle;Signal;HPM_P1;HPM_P2
2023/10/23 00:02:10;;;;;;;3.92;2.88;;;;;;;9.71;100.00;101235.41;10582048;28;20035;-71
2023/10/23 00:07:11;;;;;;;4.47;3.50;;;;;;;9.44;100.00;101234.94;10580944;28;20458;-72
2023/10/23 00:12:11;;;;;;;3.83;3.53;;;;;;;9.21;100.00;101234.13;10597238;27;20050;-73
2023/10/23 00:17:12;;;;;;;3.67;3.47;;;;;;;9.00;100.00;101242.91;10581055;28;20036;-72
2023/10/23 00:22:12;;;;;;;4.75;3.28;;;;;;;8.81;100.00;101244.19;10579733;28;20035;-73
2023/10/23 00:27:12;;;;;;;3.75;3.45;;;;;;;8.65;100.00;101236.16;10578608;28;20381;-73
2023/10/23 00:32:13;;;;;;;12.07;3.47;;;;;;;8.64;100.00;101240.72;10579861;28;20042;-74
2023/10/23 00:37:13;;;;;;;3.88;3.67;;;;;;;8.51;100.00;101235.88;10579276;28;20036;-72
2023/10/23 00:42:14;;;;;;;7.53;4.45;;;;;;;8.49;100.00;101234.41;10578709;28;20477;-72
2023/10/23 00:47:16;;;;;;;4.80;3.85;;;;;;;8.35;100.00;101244.88;10580589;28;20035;-73
2023/10/23 00:52:17;;;;;;;4.78;3.72;;;;;;;8.18;100.00;101247.81;10579809;28;20055;-73
2023/10/23 00:57:17;;;;;;;4.05;3.13;;;;;;;8.16;100.00;101253.38;10579306;28;20059;-71
2023/10/23 01:02:18;;;;;;;4.63;4.05;;;;;;;8.18;100.00;101254.03;10581239;28;20070;-71
2023/10/23 01:07:18;;;;;;;7.93;5.05;;;;;;;8.12;100.00;101255.56;10578490;28;20110;-71
2023/10/23 01:12:18;;;;;;;5.28;4.78;;;;;;;8.12;100.00;101263.66;10577372;28;20145;-72
2023/10/23 01:17:19;;;;;;;6.30;5.80;;;;;;;8.07;100.00;101273.28;10580688;28;20046;-73
2023/10/23 01:22:19;;;;;;;11.55;4.53;;;;;;;8.05;100.00;101278.03;10580802;28;20036;-71
2023/10/23 01:27:19;;;;;;;4.43;4.13;;;;;;;8.04;100.00;101276.31;10580075;28;20040;-73
2023/10/23 01:32:20;;;;;;;6.95;5.63;;;;;;;8.00;100.00;101274.97;10579899;28;20027;-72
2023/10/23 01:37:20;;;;;;;6.30;5.70;;;;;;;7.83;100.00;101255.31;10578110;28;20466;-72
2023/10/23 01:42:21;;;;;;;10.82;6.30;;;;;;;7.77;100.00;101253.28;10581623;28;20058;-73
2023/10/23 01:47:24;;;;;;;4.80;4.50;;;;;;;7.67;100.00;101251.59;10588667;28;20415;-73
2023/10/23 01:52:25;;;;;;;4.93;4.53;;;;;;;7.55;100.00;101252.97;10587647;28;20027;-72
2023/10/23 01:57:25;;;;;;;11.02;6.93;;;;;;;7.64;100.00;101251.94;10610264;27;20032;-72
2023/10/23 02:02:26;;;;;;;8.10;5.88;;;;;;;7.67;100.00;101262.38;10594119;28;20347;-74
2023/10/23 02:07:27;;;;;;;9.77;6.28;;;;;;;7.66;100.00;101265.28;10587798;28;20459;-71
2023/10/23 02:12:28;;;;;;;8.65;7.78;;;;;;;7.69;100.00;101270.31;10585516;28;20036;-73
2023/10/23 02:17:28;;;;;;;11.52;7.45;;;;;;;7.76;100.00;101270.47;10602054;27;20042;-72
2023/10/23 02:22:29;;;;;;;7.18;5.85;;;;;;;7.77;100.00;101274.84;10586020;28;20038;-73
2023/10/23 02:27:29;;;;;;;9.85;8.82;;;;;;;7.80;100.00;101267.25;10586105;28;20032;-72
2023/10/23 02:32:29;;;;;;;8.80;7.30;;;;;;;7.77;100.00;101272.16;10584186;28;20461;-72
2023/10/23 02:37:30;;;;;;;13.40;8.93;;;;;;;7.83;100.00;101279.56;10584953;28;20040;-71
2023/10/23 02:42:30;;;;;;;9.90;9.00;;;;;;;7.80;100.00;101288.00;10584745;28;20056;-72
2023/10/23 02:47:31;;;;;;;10.32;9.20;;;;;;;7.81;100.00;101278.88;10585246;28;20030;-73
2023/10/23 02:52:31;;;;;;;9.27;7.75;;;;;;;7.81;100.00;101281.56;10585083;27;20472;-72
2023/10/23 02:57:32;;;;;;;8.07;7.28;;;;;;;7.64;100.00;101272.66;10582778;28;20074;-72
2023/10/23 03:02:33;;;;;;;10.70;8.75;;;;;;;7.66;100.00;101284.13;10582791;28;20067;-73
2023/10/23 03:07:33;;;;;;;10.43;8.02;;;;;;;7.74;100.00;101292.19;10600733;27;20088;-73
2023/10/23 03:12:34;;;;;;;11.55;9.27;;;;;;;7.68;100.00;101291.00;10583486;28;20463;-72
2023/10/23 03:17:34;;;;;;;12.15;10.70;;;;;;;7.78;100.00;101303.50;10582369;28;20084;-73
2023/10/23 03:22:35;;;;;;;18.63;12.15;;;;;;;7.86;100.00;101296.25;10582483;28;20027;-73
2023/10/23 03:27:35;;;;;;;60.05;17.77;;;;;;;8.18;100.00;101301.75;10583494;28;20040;-73
2023/10/23 03:32:35;;;;;;;63.75;18.67;;;;;;;8.40;100.00;101292.97;10582935;28;20085;-72
2023/10/23 03:37:36;;;;;;;133.30;26.98;;;;;;;8.58;100.00;101298.97;10583049;28;20412;-72
2023/10/23 03:42:36;;;;;;;31.83;16.70;;;;;;;8.61;100.00;101297.75;10582141;27;20048;-73
2023/10/23 03:47:37;;;;;;;33.10;18.38;;;;;;;8.54;100.00;101311.13;10582554;28;20473;-73
2023/10/23 03:52:37;;;;;;;67.35;19.13;;;;;;;8.54;100.00;101304.88;10581650;28;20031;-72
2023/10/23 03:57:37;;;;;;;41.60;19.58;;;;;;;8.66;100.00;101310.75;10581897;28;20035;-71
2023/10/23 04:02:38;;;;;;;60.08;20.85;;;;;;;8.75;100.00;101309.72;10580832;28;20035;-73
2023/10/23 04:07:38;;;;;;;95.10;21.55;;;;;;;8.82;100.00;101303.41;10580762;28;20077;-72
2023/10/23 04:12:39;;;;;;;46.00;16.25;;;;;;;8.90;100.00;101313.31;10582096;27;20531;-72
2023/10/23 04:17:39;;;;;;;110.78;21.77;;;;;;;8.94;100.00;101306.56;10581112;28;20035;-71
2023/10/23 04:22:39;;;;;;;66.60;18.13;;;;;;;9.05;100.00;101308.03;10579871;28;20403;-72
2023/10/23 04:27:40;;;;;;;85.18;19.88;;;;;;;9.10;100.00;101302.09;10562218;28;20077;-72
2023/10/23 04:32:40;;;;;;;84.13;21.38;;;;;;;9.08;100.00;101297.69;10580336;28;20024;-72
2023/10/23 04:37:41;;;;;;;153.65;25.58;;;;;;;9.06;100.00;101301.59;10580262;28;20047;-73
2023/10/23 04:42:41;;;;;;;104.22;20.23;;;;;;;9.16;100.00;101294.13;10578212;28;20043;-74
2023/10/23 04:47:41;;;;;;;145.40;28.45;;;;;;;9.17;100.00;101305.78;10596884;27;20039;-73
2023/10/23 04:52:42;;;;;;;93.30;20.65;;;;;;;9.15;100.00;101302.41;10578399;28;20114;-74
2023/10/23 04:57:43;;;;;;;100.47;20.90;;;;;;;9.15;100.00;101294.28;10578295;28;20114;-72
2023/10/23 05:02:45;;;;;;;196.27;34.05;;;;;;;9.24;100.00;101304.03;10579302;28;20031;-74
2023/10/23 05:07:45;;;;;;;189.27;34.88;;;;;;;9.29;100.00;101307.03;10561916;28;20027;-73
2023/10/23 05:12:49;;;;;;;141.10;25.05;;;;;;;9.34;100.00;101293.81;10579575;28;20420;-72
2023/10/23 05:17:49;;;;;;;47.60;20.92;;;;;;;9.45;100.00;101296.13;10577926;28;20426;-71
2023/10/23 05:22:50;;;;;;;291.65;39.92;;;;;;;9.55;100.00;101296.72;10578205;28;20051;-72
2023/10/23 05:27:50;;;;;;;192.35;28.80;;;;;;;9.55;100.00;101301.28;10578492;28;20427;-73
2023/10/23 05:32:51;;;;;;;139.80;32.33;;;;;;;9.62;100.00;101302.22;10578651;28;20028;-71
2023/10/23 05:37:51;;;;;;;214.50;33.88;;;;;;;9.62;100.00;101298.69;10595312;28;20036;-72
2023/10/23 05:42:52;;;;;;;153.77;30.83;;;;;;;9.63;100.00;101300.38;10577729;28;20443;-71
2023/10/23 05:47:52;;;;;;;185.15;35.10;;;;;;;9.65;100.00;101307.28;10576720;28;20027;-73
2023/10/23 05:52:52;;;;;;;241.65;40.75;;;;;;;9.67;100.00;101299.00;10578910;28;20030;-71
2023/10/23 05:57:54;;;;;;;218.65;37.55;;;;;;;9.66;100.00;101300.00;10578354;28;20032;-71
2023/10/23 06:02:54;;;;;;;191.10;39.72;;;;;;;9.68;100.00;101303.38;10577650;28;20031;-71
2023/10/23 06:07:54;;;;;;;181.00;29.30;;;;;;;9.67;100.00;101310.66;10577655;28;20417;-70
2023/10/23 06:12:55;;;;;;;169.20;28.73;;;;;;;9.67;100.00;101291.72;10577893;28;20032;-70
2023/10/23 06:17:55;;;;;;;180.80;32.05;;;;;;;9.61;100.00;101307.84;10578413;28;20024;-70
2023/10/23 06:22:55;;;;;;;102.10;26.38;;;;;;;9.58;100.00;101309.03;10578648;28;20051;-70
2023/10/23 06:27:56;;;;;;;173.55;28.80;;;;;;;9.50;100.00;101309.91;10595212;28;20088;-71
2023/10/23 06:32:57;;;;;;;187.60;35.65;;;;;;;9.52;100.00;101307.03;10583475;28;20100;-69
2023/10/23 06:37:57;;;;;;;19.88;14.80;;;;;;;9.56;100.00;101302.94;10584524;28;20054;-71
2023/10/23 06:42:58;;;;;;;106.88;31.10;;;;;;;9.64;100.00;101293.94;10583076;28;20114;-68
2023/10/23 06:47:58;;;;;;;156.63;29.50;;;;;;;9.80;100.00;101307.34;10585045;28;20092;-71
2023/10/23 06:52:59;;;;;;;92.07;27.10;;;;;;;9.87;100.00;101292.03;10584902;28;20400;-69
2023/10/23 06:57:59;;;;;;;95.43;28.67;;;;;;;9.86;100.00;101297.63;10582665;28;20083;-70
2023/10/23 07:03:00;;;;;;;46.90;23.25;;;;;;;9.89;100.00;101297.25;10582801;28;20123;-71
2023/10/23 07:08:00;;;;;;;135.23;30.48;;;;;;;9.98;100.00;101302.41;10582259;28;20027;-72
2023/10/23 07:13:02;;;;;;;53.60;26.02;;;;;;;9.99;100.00;101304.09;10582338;27;20184;-70
2023/10/23 07:18:02;;;;;;;106.85;35.00;;;;;;;10.08;100.00;101302.13;10582503;28;20438;-70
2023/10/23 07:23:02;;;;;;;80.10;32.75;;;;;;;10.21;100.00;101304.22;10582741;28;20045;-74
2023/10/23 07:28:03;;;;;;;71.75;35.42;;;;;;;10.37;100.00;101298.69;10581151;28;20023;-69
2023/10/23 07:33:03;;;;;;;98.97;39.90;;;;;;;10.44;100.00;101306.91;10581571;28;20435;-69
2023/10/23 07:38:04;;;;;;;64.53;38.53;;;;;;;10.50;100.00;101308.84;10580335;28;20051;-70
2023/10/23 07:43:04;;;;;;;62.10;35.03;;;;;;;10.48;100.00;101306.31;10580088;28;20047;-70
2023/10/23 07:48:04;;;;;;;56.03;32.75;;;;;;;10.44;100.00;101309.59;10581164;28;20099;-69
2023/10/23 07:53:05;;;;;;;59.47;37.00;;;;;;;10.59;100.00;101309.56;10581027;28;20491;-71
2023/10/23 07:58:05;;;;;;;62.17;37.88;;;;;;;10.54;100.00;101295.78;10581067;28;20024;-70
2023/10/23 08:03:06;;;;;;;68.72;40.78;;;;;;;10.63;100.00;101289.25;10580045;28;20031;-72
2023/10/23 08:08:06;;;;;;;58.03;38.95;;;;;;;10.69;100.00;101283.06;10596993;27;20027;-71
2023/10/23 08:13:06;;;;;;;52.20;32.55;;;;;;;10.63;100.00;101283.81;10595949;27;20093;-72
2023/10/23 08:18:07;;;;;;;67.05;38.35;;;;;;;10.69;100.00;101281.19;10579693;28;20027;-71
2023/10/23 08:23:07;;;;;;;52.83;36.63;;;;;;;10.96;100.00;101299.63;10579179;28;20027;-71
2023/10/23 08:28:08;;;;;;;42.47;31.42;;;;;;;11.04;100.00;101296.78;10580345;28;20032;-72
2023/10/23 08:33:09;;;;;;;55.45;33.65;;;;;;;11.07;100.00;101285.56;10580211;28;20344;-72
2023/10/23 08:38:09;;;;;;;47.30;34.55;;;;;;;11.13;100.00;101290.22;10579181;28;20481;-70
2023/10/23 08:43:10;;;;;;;38.30;29.55;;;;;;;11.24;100.00;101292.47;10581053;28;20047;-73
2023/10/23 08:48:10;;;;;;;43.60;28.27;;;;;;;11.17;100.00;101286.13;10578448;28;20023;-69
2023/10/23 08:53:11;;;;;;;42.38;29.98;;;;;;;11.12;100.00;101283.97;10577975;28;20114;-71
2023/10/23 08:58:13;;;;;;;39.85;28.05;;;;;;;11.19;100.00;101284.06;10577908;28;20055;-70
2023/10/23 09:03:13;;;;;;;44.10;31.88;;;;;;;11.28;100.00;101293.75;10595355;27;20026;-70
2023/10/23 09:08:13;;;;;;;43.58;26.48;;;;;;;11.44;100.00;101291.81;10561476;28;20024;-71
2023/10/23 09:13:14;;;;;;;34.05;24.42;;;;;;;11.46;100.00;101284.34;10578189;28;20032;-72
2023/10/23 09:18:14;;;;;;;36.72;28.25;;;;;;;11.47;100.00;101270.56;10579916;28;20088;-71
2023/10/23 09:23:15;;;;;;;39.38;28.65;;;;;;;11.51;100.00;101279.16;10581241;28;20547;-72
2023/10/23 09:28:15;;;;;;;42.38;28.27;;;;;;;11.63;100.00;101283.03;10583932;28;20048;-71
2023/10/23 09:33:16;;;;;;;37.92;27.70;;;;;;;11.63;100.00;101285.75;10589837;28;20036;-71
2023/10/23 09:38:16;;;;;;;32.55;24.05;;;;;;;11.58;100.00;101278.19;10580329;28;20451;-72
2023/10/23 09:43:18;;;;;;;35.38;23.63;;;;;;;11.40;100.00;101281.34;10577324;28;20048;-72
2023/10/23 09:48:19;;;;;;;32.30;24.08;;;;;;;11.33;100.00;101279.63;10560011;28;20027;-72
2023/10/23 09:53:19;;;;;;;27.10;22.25;;;;;;;11.19;100.00;101273.22;10577171;28;20032;-71
2023/10/23 09:58:20;;;;;;;31.42;23.20;;;;;;;11.12;100.00;101273.13;10560427;28;20043;-72
2023/10/23 10:03:20;;;;;;;25.52;22.45;;;;;;;11.20;100.00;101268.63;10579635;28;20491;-71
2023/10/23 10:08:21;;;;;;;26.48;22.60;;;;;;;11.20;100.00;101274.91;10567546;28;20024;-71
2023/10/23 10:13:21;;;;;;;27.25;21.23;;;;;;;11.03;100.00;101268.88;10584877;28;20072;-71
2023/10/23 10:18:21;;;;;;;35.53;24.77;;;;;;;11.07;100.00;101267.47;10568586;28;20027;-71
2023/10/23 10:23:22;;;;;;;38.25;25.20;;;;;;;10.97;100.00;101266.91;10585195;28;20422;-72
2023/10/23 10:28:26;;;;;;;36.58;26.02;;;;;;;11.08;100.00;101257.47;10567221;28;20015;-71
2023/10/23 10:33:30;;;;;;;47.58;28.17;;;;;;;11.22;100.00;101264.69;10585214;28;20111;-72
2023/10/23 10:38:31;;;;;;;46.80;30.05;;;;;;;11.51;100.00;101254.75;10584500;28;20058;-72
2023/10/23 10:43:39;;;;;;;62.80;31.00;;;;;;;11.48;100.00;101253.25;10583898;28;20195;-72
2023/10/23 10:48:44;;;;;;;55.60;30.45;;;;;;;11.30;100.00;101247.47;10585312;28;20035;-73
2023/10/23 10:53:48;;;;;;;53.63;28.83;;;;;;;11.58;100.00;101240.22;10566237;28;20415;-71
2023/10/23 10:58:49;;;;;;;53.63;33.72;;;;;;;11.59;100.00;101225.63;10583902;28;20163;-72
2023/10/23 11:03:49;;;;;;;57.38;31.40;;;;;;;11.65;100.00;101213.16;10583543;28;20155;-72
2023/10/23 11:08:50;;;;;;;45.80;30.77;;;;;;;11.84;100.00;101212.50;10566725;27;20042;-71
2023/10/23 11:13:52;;;;;;;54.05;30.48;;;;;;;12.13;100.00;101205.16;10582270;28;20478;-71
2023/10/23 11:18:52;;;;;;;50.65;30.15;;;;;;;12.07;100.00;101190.50;10581888;28;20086;-72
2023/10/23 11:23:56;;;;;;;43.95;29.45;;;;;;;12.36;100.00;101182.28;10583019;28;20042;-70
2023/10/23 11:28:56;;;;;;;37.50;24.83;;;;;;;12.48;100.00;101167.09;10583636;28;20027;-71
2023/10/23 11:33:57;;;;;;;36.25;28.52;;;;;;;12.74;100.00;101169.03;10580538;28;20100;-72
2023/10/23 11:38:57;;;;;;;44.88;28.50;;;;;;;12.83;100.00;101156.06;10582078;28;20035;-70
2023/10/23 11:44:03;;;;;;;44.33;27.23;;;;;;;13.16;100.00;101150.69;10581854;28;20059;-71
2023/10/23 11:49:03;;;;;;;34.13;24.17;;;;;;;13.38;100.00;101137.75;10583120;28;20057;-74
2023/10/23 11:54:04;;;;;;;34.70;20.77;;;;;;;13.49;100.00;101129.78;10580870;28;20117;-70
2023/10/23 11:59:04;;;;;;;32.70;20.33;;;;;;;13.41;100.00;101121.03;10580503;28;20019;-70
2023/10/23 12:04:06;;;;;;;21.95;16.60;;;;;;;13.49;100.00;101104.47;10582441;28;20031;-73
2023/10/23 12:09:07;;;;;;;28.67;17.73;;;;;;;13.58;100.00;101102.38;10581664;28;20043;-72
2023/10/23 12:14:07;;;;;;;26.88;17.73;;;;;;;13.73;100.00;101092.91;10581701;28;20454;-72
2023/10/23 12:19:09;;;;;;;20.98;15.30;;;;;;;13.79;100.00;101091.22;10579912;28;20027;-72
2023/10/23 12:24:09;;;;;;;30.80;17.42;;;;;;;13.97;100.00;101071.47;10580558;28;20045;-71
2023/10/23 12:29:12;;;;;;;18.23;14.80;;;;;;;13.86;100.00;101074.88;10579551;28;20031;-71
2023/10/23 12:34:13;;;;;;;21.45;14.40;;;;;;;13.98;100.00;101061.44;10579884;28;20027;-71
2023/10/23 12:39:13;;;;;;;15.95;12.73;;;;;;;13.96;100.00;101067.06;10579247;28;20051;-72
2023/10/23 12:44:13;;;;;;;20.95;14.10;;;;;;;13.95;100.00;101068.97;10580292;28;20130;-73
2023/10/23 12:49:14;;;;;;;18.77;13.65;;;;;;;13.80;100.00;101059.41;10561673;28;20092;-72
2023/10/23 12:54:14;;;;;;;23.27;12.95;;;;;;;13.82;100.00;101043.69;10580888;28;20443;-69
2023/10/23 12:59:15;;;;;;;18.83;13.20;;;;;;;13.65;100.00;101041.41;10562497;28;20023;-71
2023/10/23 13:04:15;;;;;;;21.20;13.73;;;;;;;13.61;100.00;101033.91;10578408;28;20101;-73
2023/10/23 13:09:16;;;;;;;23.80;13.85;;;;;;;13.62;100.00;101020.06;10579236;28;20088;-72
2023/10/23 13:14:16;;;;;;;16.13;13.48;;;;;;;13.51;100.00;101007.16;10561000;28;20047;-74
2023/10/23 13:19:17;;;;;;;17.10;11.50;;;;;;;13.40;100.00;101013.25;10578152;28;20362;-71
2023/10/23 13:24:18;;;;;;;21.20;11.23;;;;;;;13.41;100.00;101004.88;10579074;28;20335;-72
2023/10/23 13:29:19;;;;;;;18.90;11.98;;;;;;;13.44;100.00;100999.03;10580567;28;20362;-72
2023/10/23 13:34:20;;;;;;;18.58;11.23;;;;;;;13.39;100.00;100997.97;10562274;28;20084;-72
2023/10/23 13:39:20;;;;;;;14.88;10.00;;;;;;;13.21;100.00;101004.09;10589447;28;20110;-72
2023/10/23 13:44:20;;;;;;;10.13;9.05;;;;;;;13.06;100.00;100998.03;10587219;28;20079;-72
2023/10/23 13:49:21;;;;;;;11.60;10.48;;;;;;;13.02;100.00;101003.06;10586787;28;20123;-71
2023/10/23 13:54:23;;;;;;;17.33;11.07;;;;;;;13.04;100.00;100995.50;10568470;28;20024;-72
2023/10/23 13:59:23;;;;;;;12.93;11.00;;;;;;;12.93;100.00;100991.56;10586413;28;20074;-71
2023/10/23 14:04:24;;;;;;;17.52;11.40;;;;;;;12.97;100.00;100992.81;10586213;28;20035;-71
2023/10/23 14:09:24;;;;;;;12.27;10.45;;;;;;;12.99;100.00;100992.63;10584469;28;20136;-70
2023/10/23 14:14:25;;;;;;;14.65;9.85;;;;;;;12.94;100.00;100982.34;10585875;28;20069;-70
2023/10/23 14:19:25;;;;;;;19.75;10.30;;;;;;;13.08;100.00;100969.59;10585850;27;20118;-70
2023/10/23 14:24:26;;;;;;;27.85;11.57;;;;;;;13.02;100.00;100965.84;10586963;28;20458;-72
2023/10/23 14:29:26;;;;;;;12.88;9.00;;;;;;;12.98;100.00;100953.69;10551709;28;20031;-72
2023/10/23 14:34:27;;;;;;;17.25;8.85;;;;;;;13.12;100.00;100946.38;10585644;28;20420;-73
2023/10/23 14:39:29;;;;;;;15.75;10.40;;;;;;;13.15;100.00;100935.06;10584888;28;20110;-70
2023/10/23 14:44:30;;;;;;;12.13;10.50;;;;;;;13.03;100.00;100917.72;10585500;28;20052;-72
2023/10/23 14:49:31;;;;;;;15.65;10.57;;;;;;;12.94;100.00;100889.09;10586074;28;20028;-72
2023/10/23 14:54:32;;;;;;;14.43;11.02;;;;;;;12.87;100.00;100874.72;10585301;28;20027;-73
2023/10/23 14:59:32;;;;;;;13.13;9.40;;;;;;;12.77;100.00;100861.56;10584527;28;20334;-72
2023/10/23 15:04:32;;;;;;;13.05;10.20;;;;;;;12.70;100.00;100858.00;10584513;28;20032;-71
2023/10/23 15:09:33;;;;;;;18.90;9.30;;;;;;;12.72;100.00;100855.91;10582159;28;20093;-70
2023/10/23 15:14:33;;;;;;;10.68;9.57;;;;;;;12.63;100.00;100852.59;10584459;28;20067;-72
2023/10/23 15:19:34;;;;;;;11.07;8.82;;;;;;;12.61;100.00;100848.44;10582510;28;20358;-72
2023/10/23 15:24:34;;;;;;;18.52;9.57;;;;;;;12.52;100.00;100851.38;10582083;28;20058;-72
2023/10/23 15:29:34;;;;;;;18.40;9.32;;;;;;;12.53;100.00;100858.47;10583866;28;20076;-73
2023/10/23 15:34:35;;;;;;;12.35;9.43;;;;;;;12.46;100.00;100845.94;10582015;28;20382;-71
2023/10/23 15:39:42;;;;;;;25.58;11.38;;;;;;;12.39;100.00;100850.56;10581835;28;20030;-73
2023/10/23 15:44:43;;;;;;;19.05;9.82;;;;;;;12.32;100.00;100824.25;10582316;28;20047;-72
2023/10/23 15:49:43;;;;;;;13.02;9.38;;;;;;;12.30;100.00;100812.75;10585073;28;20047;-71
2023/10/23 15:54:44;;;;;;;18.13;10.60;;;;;;;12.27;100.00;100805.03;10585097;28;20373;-71
2023/10/23 15:59:44;;;;;;;19.17;11.68;;;;;;;12.24;100.00;100788.31;10580087;28;20047;-73
2023/10/23 16:04:46;;;;;;;18.88;10.43;;;;;;;12.21;100.00;100778.72;10582871;28;20039;-71
2023/10/23 16:09:47;;;;;;;18.00;10.90;;;;;;;12.14;100.00;100768.94;10581493;28;20032;-72
2023/10/23 16:14:47;;;;;;;14.57;11.15;;;;;;;12.07;100.00;100758.91;10582122;28;20031;-72
2023/10/23 16:19:47;;;;;;;30.52;12.35;;;;;;;12.09;100.00;100759.53;10580889;27;20038;-72
2023/10/23 16:24:48;;;;;;;30.70;13.73;;;;;;;12.07;100.00;100758.91;10579989;28;20081;-72
2023/10/23 16:29:48;;;;;;;28.98;15.27;;;;;;;12.02;100.00;100752.44;10579612;28;20027;-72
2023/10/23 16:34:49;;;;;;;25.45;16.27;;;;;;;12.01;100.00;100764.34;10580892;28;20473;-74
2023/10/23 16:39:49;;;;;;;27.65;19.67;;;;;;;12.01;100.00;100748.06;10578670;28;20098;-72
2023/10/23 16:44:50;;;;;;;30.90;17.40;;;;;;;12.01;100.00;100748.06;10583474;27;20131;-72
2023/10/23 16:49:52;;;;;;;27.35;17.35;;;;;;;12.00;100.00;100739.09;10583773;28;20031;-74
2023/10/23 16:54:52;;;;;;;26.17;20.23;;;;;;;11.99;100.00;100736.56;10579188;28;20116;-71
2023/10/23 16:59:53;;;;;;;28.17;22.40;;;;;;;11.93;100.00;100738.25;10580348;28;20076;-71
2023/10/23 17:04:53;;;;;;;34.15;22.67;;;;;;;11.94;100.00;100741.81;10578134;28;20110;-72
2023/10/23 17:09:54;;;;;;;34.72;23.30;;;;;;;11.96;100.00;100740.53;10578563;28;20127;-70
2023/10/23 17:14:54;;;;;;;29.15;21.23;;;;;;;12.00;100.00;100738.25;10579538;28;20458;-73
2023/10/23 17:19:55;;;;;;;29.52;22.60;;;;;;;11.98;100.00;100735.75;10579579;28;20115;-73
2023/10/23 17:24:55;;;;;;;45.08;27.40;;;;;;;12.01;100.00;100726.34;10578554;28;20031;-73
2023/10/23 17:29:55;;;;;;;56.80;25.58;;;;;;;12.05;100.00;100724.88;10579272;28;20371;-72
2023/10/23 17:34:56;;;;;;;30.17;23.85;;;;;;;12.09;100.00;100713.41;10580341;28;20067;-72
2023/10/23 17:39:56;;;;;;;35.10;23.10;;;;;;;12.09;100.00;100718.84;10578653;28;20462;-71
2023/10/23 17:44:57;;;;;;;38.47;25.92;;;;;;;12.09;100.00;100704.41;10579931;28;20142;-72
2023/10/23 17:49:57;;;;;;;34.10;22.33;;;;;;;12.03;100.00;100706.09;10578317;28;20034;-72
2023/10/23 17:54:58;;;;;;;46.03;25.85;;;;;;;11.98;100.00;100688.78;10579682;28;20069;-71
2023/10/23 17:59:58;;;;;;;38.58;26.13;;;;;;;11.94;100.00;100684.84;10578833;28;20447;-72
2023/10/23 18:04:58;;;;;;;36.55;24.05;;;;;;;11.92;100.00;100682.31;10581133;28;20042;-71
2023/10/23 18:09:59;;;;;;;34.13;24.95;;;;;;;11.84;100.00;100683.38;10581058;28;20444;-72
2023/10/23 18:15:00;;;;;;;45.33;29.35;;;;;;;11.78;100.00;100681.47;10559977;28;20047;-72
2023/10/23 18:20:00;;;;;;;35.20;26.27;;;;;;;11.72;100.00;100671.47;10579085;28;20063;-72
2023/10/23 18:25:01;;;;;;;40.65;25.70;;;;;;;11.76;100.00;100675.41;10597721;27;20066;-70
2023/10/23 18:30:01;;;;;;;37.45;26.35;;;;;;;11.76;100.00;100659.16;10587166;28;20483;-71
2023/10/23 18:35:02;;;;;;;36.00;27.10;;;;;;;11.64;100.00;100652.69;10587295;28;20062;-71
2023/10/23 18:40:04;;;;;;;47.45;28.90;;;;;;;11.61;100.00;100658.53;10584607;28;20052;-68
2023/10/23 18:45:05;;;;;;;44.10;26.27;;;;;;;11.60;100.00;100646.84;10584568;28;20052;-70
2023/10/23 18:50:06;;;;;;;38.53;25.83;;;;;;;11.56;100.00;100639.38;10584516;28;20058;-69
2023/10/23 18:55:07;;;;;;;32.63;27.95;;;;;;;11.50;100.00;100638.31;10584258;28;20400;-70
2023/10/23 19:00:08;;;;;;;37.35;24.83;;;;;;;11.52;100.00;100632.66;10550205;28;20085;-69
2023/10/23 19:05:09;;;;;;;35.47;26.75;;;;;;;11.47;100.00;100627.06;10599473;27;20122;-71
2023/10/23 19:10:09;;;;;;;39.28;27.70;;;;;;;11.44;100.00;100625.59;10584104;28;20051;-68
2023/10/23 19:15:10;;;;;;;33.83;27.20;;;;;;;11.40;100.00;100624.34;10584887;28;20067;-68
2023/10/23 19:20:11;;;;;;;33.90;25.13;;;;;;;11.38;100.00;100615.59;10584780;28;20374;-69
2023/10/23 19:25:12;;;;;;;31.08;24.83;;;;;;;11.40;100.00;100618.94;10583052;28;20084;-68
2023/10/23 19:30:12;;;;;;;41.65;28.73;;;;;;;11.37;100.00;100612.03;10583280;28;20091;-68
2023/10/23 19:35:15;;;;;;;31.55;24.73;;;;;;;11.36;100.00;100604.13;10582996;28;20420;-69
2023/10/23 19:40:15;;;;;;;34.67;28.52;;;;;;;11.37;100.00;100595.78;10582382;28;20114;-69
2023/10/23 19:45:16;;;;;;;47.38;28.45;;;;;;;11.33;100.00;100586.41;10583181;28;20077;-70
2023/10/23 19:50:17;;;;;;;36.00;28.50;;;;;;;11.32;100.00;100582.00;10583009;28;20399;-69
2023/10/23 19:55:19;;;;;;;2.13;2.13;;;;;;;11.34;100.00;100579.09;10581083;28;20024;-68
2023/10/23 20:00:20;;;;;;;1.95;1.90;;;;;;;11.35;100.00;100561.78;10581819;28;20122;-67
2023/10/23 20:05:20;;;;;;;1.90;1.73;;;;;;;11.31;100.00;100553.25;10580869;28;20035;-68
2023/10/23 20:10:22;;;;;;;1.55;1.48;;;;;;;11.25;100.00;100545.13;10580388;28;20039;-70
2023/10/23 20:15:31;;;;;;;1.40;1.40;;;;;;;11.26;100.00;100536.78;10580633;28;20061;-68
2023/10/23 20:20:31;;;;;;;4.88;2.70;;;;;;;11.28;100.00;100517.59;10563854;28;20028;-67
2023/10/23 20:25:32;;;;;;;2.33;1.80;;;;;;;11.26;100.00;100503.41;10581980;28;20051;-68
2023/10/23 20:30:33;;;;;;;1.85;1.80;;;;;;;11.29;100.00;100498.41;10579967;28;20443;-69
2023/10/23 20:35:34;;;;;;;0.95;0.95;;;;;;;11.28;100.00;100495.91;10580183;28;20031;-69
2023/10/23 20:40:38;;;;;;;1.77;1.70;;;;;;;11.22;100.00;100465.06;10578624;28;20511;-67
2023/10/23 20:45:38;;;;;;;0.50;0.50;;;;;;;11.22;100.00;100454.22;10578309;28;20050;-67
2023/10/23 20:50:39;;;;;;;3.45;2.83;;;;;;;11.17;100.00;100441.31;10581559;28;20032;-67
2023/10/23 20:55:40;;;;;;;3.05;2.80;;;;;;;11.19;100.00;100422.13;10584401;27;20039;-68
2023/10/23 21:00:40;;;;;;;1.42;1.27;;;;;;;11.14;100.00;100419.25;10584956;28;20039;-68
2023/10/23 21:05:40;;;;;;;2.05;1.98;;;;;;;11.10;100.00;100408.00;10582943;28;20031;-68
2023/10/23 21:10:41;;;;;;;2.05;1.95;;;;;;;11.10;100.00;100396.31;10578819;28;20039;-68
2023/10/23 21:15:41;;;;;;;1.00;1.00;;;;;;;11.07;100.00;100378.63;10578809;28;20032;-68
2023/10/23 21:20:42;;;;;;;2.42;2.33;;;;;;;11.02;100.00;100362.16;10580304;28;20035;-69
2023/10/23 21:25:42;;;;;;;1.15;1.15;;;;;;;11.04;100.00;100360.06;10581538;28;20428;-68
2023/10/23 21:30:43;;;;;;;1.98;1.83;;;;;;;10.98;100.00;100357.38;10580773;28;20036;-68
2023/10/23 21:35:43;;;;;;;1.83;1.83;;;;;;;10.95;100.00;100350.53;10579860;28;20035;-65
2023/10/23 21:40:45;;;;;;;2.55;2.42;;;;;;;10.92;100.00;100343.66;10578417;28;20126;-68
2023/10/23 21:45:46;;;;;;;1.67;1.67;;;;;;;10.89;100.00;100341.34;10578406;28;20043;-68
2023/10/23 21:50:47;;;;;;;9.63;4.30;;;;;;;10.88;100.00;100312.63;10578018;28;20096;-67
2023/10/23 21:55:48;;;;;;;2.97;1.67;;;;;;;10.91;100.00;100314.03;10560859;28;20343;-68
2023/10/23 22:00:49;;;;;;;1.48;1.48;;;;;;;10.94;100.00;100308.19;10584618;28;20458;-68
2023/10/23 22:05:50;;;;;;;1.42;1.42;;;;;;;10.93;100.00;100310.06;10586613;28;20180;-69
2023/10/23 22:10:50;;;;;;;0.95;0.95;;;;;;;10.93;100.00;100301.13;10586565;28;20117;-69
2023/10/23 22:15:51;;;;;;;0.50;0.50;;;;;;;10.96;100.00;100291.75;10601770;27;20083;-72
2023/10/23 22:20:51;;;;;;;2.72;2.63;;;;;;;11.00;100.00;100282.13;10601303;27;20093;-70
2023/10/23 22:25:52;;;;;;;0.40;0.40;;;;;;;10.97;100.00;100266.31;10585596;28;20082;-71